Time;durP1;ratioP1;P1;durP2;ratioP2;P2;SDS_P1;SDS_P2;PMS_P1;PMS_P2;Temp;Humidity;BMP_temperature;BMP_pressure;BME280_temperature;BME280_humidity;BME280_pressure;Samples;Min_cycle;Max_cycle;Signal;HPM_P1;HPM_P2
2023/01/21 00:02:59;;;;;;;;;14.50;13.50;;;;;7.18;58.02;98355.47;6238417;28;96539;-64
2023/01/21 00:06:04;;;;;;;;;14.00;12.40;;;;;7.21;57.85;98356.88;6240018;27;96444;-63
2023/01/21 00:09:08;;;;;;;;;15.00;13.40;;;;;7.18;57.90;98360.00;6253197;27;96853;-63
2023/01/21 00:12:12;;;;;;;;;14.00;14.00;;;;;7.18;57.90;98351.97;6243728;27;96322;-63
2023/01/21 00:15:16;;;;;;;;;14.40;13.40;;;;;7.19;58.00;98351.72;6247409;27;96272;-63
2023/01/21 00:18:19;;;;;;;;;12.75;12.00;;;;;7.17;58.05;98348.44;6256279;27;97771;-63
2023/01/21 00:21:24;;;;;;;;;12.60;11.20;;;;;7.19;58.06;98351.72;6246856;27;96855;-63
2023/01/21 00:24:27;;;;;;;;;15.00;14.00;;;;;7.20;58.00;98348.00;6237948;27;96304;-63
2023/01/21 00:27:31;;;;;;;;;15.50;13.50;;;;;7.21;57.86;98346.97;6249073;27;96483;-63
2023/01/21 00:30:35;;;;;;;;;15.60;14.00;;;;;7.19;57.88;98357.09;6236246;28;96981;-64
2023/01/21 00:33:39;;;;;;;;;13.80;13.20;;;;;7.19;57.83;98359.75;6237569;28;96310;-63
2023/01/21 00:36:43;;;;;;;;;15.00;14.40;;;;;7.18;57.86;98360.00;6237993;28;96226;-63
2023/01/21 00:39:47;;;;;;;;;14.40;14.00;;;;;7.17;57.91;98353.81;6217311;28;96894;-63
2023/01/21 00:42:50;;;;;;;;;15.25;14.00;;;;;7.17;57.88;98351.13;6238731;27;96408;-63
2023/01/21 00:45:53;;;;;;;;;16.00;15.40;;;;;7.19;58.02;98358.94;6237549;28;97007;-63
2023/01/21 00:48:59;;;;;;;;;13.00;12.50;;;;;7.22;57.80;98363.91;6226113;27;96415;-65
2023/01/21 00:52:04;;;;;;;;;13.00;11.00;;;;;7.25;57.76;98360.78;6236077;28;96339;-63
2023/01/21 00:55:07;;;;;;;;;13.40;13.40;;;;;7.25;57.67;98358.91;6198800;28;96915;-64
2023/01/21 00:58:11;;;;;;;;;11.00;10.33;;;;;7.22;57.87;98366.56;6235524;28;96452;-63
2023/01/21 01:01:18;;;;;;;;;12.00;11.00;;;;;7.23;57.97;98371.69;6215837;28;96431;-64
2023/01/21 01:04:23;;;;;;;;;11.50;11.00;;;;;7.24;57.92;98377.88;6214772;28;96246;-63
2023/01/21 01:07:27;;;;;;;;;12.00;11.00;;;;;7.22;57.77;98380.81;6207365;28;97947;-65
2023/01/21 01:10:31;;;;;;;;;10.00;9.80;;;;;7.22;57.94;98374.63;6222789;28;96802;-64
2023/01/21 01:13:36;;;;;;;;;10.00;9.50;;;;;7.22;57.83;98385.34;6222472;28;96259;-64
2023/01/21 01:16:39;;;;;;;;;8.75;8.75;;;;;7.20;57.84;98371.31;6222023;28;96219;-64
2023/01/21 01:19:42;;;;;;;;;10.50;9.00;;;;;7.19;57.99;98373.16;6225284;27;96811;-63
2023/01/21 01:22:47;;;;;;;;;7.50;7.00;;;;;7.19;57.75;98378.53;6229423;28;96183;-64
2023/01/21 01:25:58;;;;;;;;;11.00;9.00;;;;;7.17;57.75;98369.91;6236493;27;96630;-64
2023/01/21 01:29:02;;;;;;;;;10.60;9.60;;;;;7.16;57.82;98368.25;6254572;27;96322;-63
2023/01/21 01:32:05;;;;;;;;;11.00;9.60;;;;;7.17;57.90;98353.00;6238108;27;96362;-63
2023/01/21 01:35:09;;;;;;;;;8.67;8.00;;;;;7.17;57.70;98356.50;6218566;28;98318;-64
2023/01/21 01:38:14;;;;;;;;;9.00;8.40;;;;;7.08;57.59;98339.00;6218343;28;96248;-64
2023/01/21 01:41:21;;;;;;;;;9.50;7.50;;;;;7.15;57.68;98344.31;6217307;28;96351;-64
2023/01/21 01:45:04;;;;;;;;;8.80;8.80;;;;;7.11;57.76;98345.78;6236869;28;96300;-64
2023/01/21 01:48:09;;;;;;;;;9.20;9.00;;;;;7.09;57.78;98337.13;6230337;27;96227;-63
2023/01/21 01:51:16;;;;;;;;;10.00;9.40;;;;;6.97;57.76;98316.38;6236406;28;96291;-62
2023/01/21 01:54:27;;;;;;;;;9.60;9.00;;;;;7.10;57.60;98328.06;6234038;28;98437;-62
2023/01/21 01:57:35;;;;;;;;;10.00;9.20;;;;;7.06;57.72;98332.19;6202907;28;96885;-63
2023/01/21 02:00:39;;;;;;;;;12.20;10.80;;;;;6.97;57.85;98337.00;6218076;28;96780;-63
2023/01/21 02:03:49;;;;;;;;;9.00;8.00;;;;;7.02;57.79;98336.34;6235924;28;96672;-63
2023/01/21 02:06:55;;;;;;;;;11.00;10.40;;;;;6.91;58.19;98337.81;6230247;28;96434;-64
2023/01/21 02:10:00;;;;;;;;;8.00;8.00;;;;;6.99;57.95;98336.78;6249597;27;96375;-64
2023/01/21 02:13:04;;;;;;;;;12.00;10.00;;;;;6.96;58.29;98340.69;6243422;27;98381;-64
2023/01/21 02:16:25;;;;;;;;;8.00;7.00;;;;;6.92;58.23;98342.97;6221460;28;97587;-63
2023/01/21 02:19:46;;;;;;;;;9.00;8.00;;;;;6.97;58.33;98342.34;6218165;28;97044;-63
2023/01/21 02:22:59;;;;;;;;;11.00;11.00;;;;;7.00;58.31;98349.13;6238320;27;96743;-63
2023/01/21 02:26:33;;;;;;;;;11.00;10.00;;;;;7.01;58.23;98345.41;6245857;27;96256;-64
2023/01/21 02:30:21;;;;;;;;;10.00;9.00;;;;;7.05;58.21;98339.41;6220275;28;97323;-64
2023/01/21 02:33:47;;;;;;;;;8.00;8.00;;;;;7.07;57.99;98349.94;6166463;28;96909;-64
2023/01/21 02:37:09;;;;;;;;;10.00;9.50;;;;;6.89;58.06;98315.78;6240958;27;96818;-63
2023/01/21 02:40:20;;;;;;;;;12.00;10.00;;;;;6.97;58.08;98335.13;6237133;27;96417;-63
2023/01/21 02:43:32;;;;;;;;;9.00;8.50;;;;;6.96;58.18;98338.00;6226628;27;96930;-63
2023/01/21 02:46:42;;;;;;;;;8.60;7.60;;;;;6.87;58.45;98341.97;6218827;27;96619;-64
2023/01/21 02:49:55;;;;;;;;;10.75;10.25;;;;;6.77;58.25;98312.13;6218585;27;96382;-63
2023/01/21 02:53:00;;;;;;;;;11.00;10.40;;;;;6.93;58.39;98330.41;6240509;27;97391;-64
2023/01/21 02:56:09;;;;;;;;;8.60;8.40;;;;;6.91;58.55;98335.16;6242546;27;96398;-63
2023/01/21 02:59:13;;;;;;;;;8.60;7.80;;;;;6.94;58.43;98332.84;6245344;27;97180;-64
2023/01/21 03:02:42;;;;;;;;;8.60;7.60;;;;;6.87;58.54;98332.06;6241099;27;96285;-64
2023/01/21 03:06:03;;;;;;;;;10.00;8.00;;;;;6.83;58.54;98330.03;6240961;28;96206;-63
2023/01/21 03:09:19;;;;;;;;;7.60;7.20;;;;;6.80;58.69;98323.22;6225961;27;96275;-63
2023/01/21 03:12:39;;;;;;;;;6.00;6.00;;;;;6.80;58.79;98323.22;6237607;27;96288;-64
2023/01/21 03:19:38;;;;;;;;;10.25;9.25;;;;;6.88;58.65;98324.88;6125558;28;96537;-65
2023/01/21 03:22:44;;;;;;;;;8.00;7.00;;;;;6.75;58.54;98306.97;6131567;28;96297;-63
2023/01/21 03:25:50;;;;;;;;;9.80;8.00;;;;;6.86;58.64;98333.09;6225737;27;96516;-63
2023/01/21 03:28:59;;;;;;;;;9.00;8.00;;;;;6.87;58.60;98328.56;6238239;28;98746;-63
2023/01/21 03:32:07;;;;;;;;;7.00;7.00;;;;;6.86;58.58;98317.03;6240858;27;96390;-63
2023/01/21 03:35:16;;;;;;;;;7.00;7.00;;;;;6.89;58.36;98323.84;6213982;28;96783;-63
2023/01/21 03:38:25;;;;;;;;;7.00;7.00;;;;;6.85;58.41;98325.25;6228765;27;96782;-63
2023/01/21 03:41:33;;;;;;;;;7.00;7.00;;;;;6.88;58.49;98333.72;6263950;27;96317;-63
2023/01/21 03:44:38;;;;;;;;;9.80;9.00;;;;;6.84;58.61;98331.69;6254679;27;96207;-63
2023/01/21 03:47:49;;;;;;;;;8.00;7.00;;;;;6.72;58.64;98325.31;6221314;28;96543;-63
2023/01/21 03:50:58;;;;;;;;;7.80;6.00;;;;;6.65;58.88;98309.25;6254410;27;96278;-62
2023/01/21 03:54:03;;;;;;;;;7.40;7.00;;;;;6.74;58.78;98324.09;6247517;27;96589;-63
2023/01/21 03:57:07;;;;;;;;;7.60;7.00;;;;;6.83;59.08;98330.03;6260031;27;96306;-62
2023/01/21 04:00:12;;;;;;;;;8.00;8.00;;;;;6.81;58.75;98330.22;6240161;28;96544;-62
2023/01/21 04:03:15;;;;;;;;;7.00;6.40;;;;;6.82;58.81;98329.22;6238643;27;96353;-62
2023/01/21 04:06:21;;;;;;;;;8.00;7.00;;;;;6.81;58.78;98338.28;6253633;27;96335;-62
2023/01/21 04:09:26;;;;;;;;;7.50;7.50;;;;;6.86;58.83;98327.75;6225224;28;96820;-62
2023/01/21 04:12:29;;;;;;;;;6.00;5.00;;;;;6.87;58.58;98329.41;6243689;27;96362;-62
2023/01/21 04:15:32;;;;;;;;;8.00;7.00;;;;;6.88;58.58;98335.56;6261946;27;96731;-62
2023/01/21 04:18:36;;;;;;;;;6.00;5.60;;;;;6.87;58.53;98334.75;6221782;28;96636;-65
2023/01/21 04:21:39;;;;;;;;;6.50;6.00;;;;;6.82;58.71;98326.53;6239859;27;96331;-61
2023/01/21 04:24:44;;;;;;;;;7.00;7.00;;;;;6.75;58.71;98316.84;6264313;27;96364;-63
2023/01/21 04:27:47;;;;;;;;;6.60;6.00;;;;;6.86;58.58;98321.56;6257709;27;96244;-62
2023/01/21 04:30:50;;;;;;;;;9.00;9.00;;;;;6.89;58.35;98315.78;6236964;27;96558;-63
2023/01/21 04:33:54;;;;;;;;;9.00;8.00;;;;;6.87;58.22;98302.59;6245812;27;96859;-63
2023/01/21 04:36:57;;;;;;;;;9.00;8.00;;;;;6.73;58.69;98295.66;6253970;27;96384;-63
2023/01/21 04:40:02;;;;;;;;;8.00;8.00;;;;;6.85;58.32;98314.53;6235666;27;96863;-62
2023/01/21 04:43:05;;;;;;;;;8.00;7.40;;;;;6.78;58.01;98313.75;6257854;27;96492;-64
2023/01/21 04:46:09;;;;;;;;;9.00;9.00;;;;;6.70;58.14;98301.41;6262023;27;96503;-62
2023/01/21 04:49:12;;;;;;;;;8.00;8.00;;;;;6.89;57.83;98310.44;6259474;27;96508;-63
2023/01/21 04:52:15;;;;;;;;;7.25;7.00;;;;;6.91;57.86;98316.38;6244711;27;97451;-63
2023/01/21 04:55:20;;;;;;;;;5.50;5.50;;;;;6.91;57.67;98314.53;6222880;28;98914;-63
2023/01/21 04:58:23;;;;;;;;;4.60;4.60;;;;;6.90;57.87;98320.91;6213661;28;96324;-63
2023/01/21 05:01:27;;;;;;;;;7.00;6.00;;;;;6.87;57.87;98318.69;6227241;27;96780;-63
2023/01/21 05:04:31;;;;;;;;;7.00;7.00;;;;;6.83;57.80;98320.13;6222230;28;96286;-62
2023/01/21 05:07:35;;;;;;;;;6.00;6.00;;;;;6.85;57.88;98320.72;6229377;28;97167;-63
2023/01/21 05:10:40;;;;;;;;;8.00;8.00;;;;;6.85;57.86;98323.41;6214667;28;98829;-63
2023/01/21 05:13:43;;;;;;;;;11.00;10.00;;;;;6.88;57.96;98320.31;6195754;28;96722;-62
2023/01/21 05:16:47;;;;;;;;;10.00;10.00;;;;;6.76;57.66;98322.00;6215102;28;96292;-62
2023/01/21 05:19:50;;;;;;;;;9.40;9.40;;;;;6.84;57.78;98321.75;6205574;28;97100;-62
2023/01/21 05:22:54;;;;;;;;;7.80;7.80;;;;;6.84;57.51;98319.09;6197627;28;98960;-62
2023/01/21 05:25:58;;;;;;;;;8.00;7.00;;;;;6.84;57.86;98323.66;6227668;27;96283;-62
2023/01/21 05:29:02;;;;;;;;;6.33;6.00;;;;;6.85;57.55;98327.94;6243299;27;96428;-63
2023/01/21 05:32:05;;;;;;;;;8.00;8.00;;;;;6.76;57.54;98318.50;6244535;27;98241;-63
2023/01/21 05:35:10;;;;;;;;;7.60;7.00;;;;;6.78;57.68;98324.47;6236372;27;97376;-63
2023/01/21 05:38:14;;;;;;;;;6.50;6.50;;;;;6.80;57.87;98328.59;6236088;28;96226;-63
2023/01/21 05:41:19;;;;;;;;;7.00;6.00;;;;;6.64;57.23;98307.63;6235143;27;96542;-62
2023/01/21 05:44:22;;;;;;;;;9.75;8.00;;;;;6.81;57.83;98324.88;6235492;28;96914;-63
2023/01/21 05:47:26;;;;;;;;;7.80;7.80;;;;;6.77;57.39;98329.00;6234160;28;96480;-62
2023/01/21 05:50:29;;;;;;;;;7.80;6.80;;;;;6.80;57.62;98331.25;6217446;28;99021;-62
2023/01/21 05:53:32;;;;;;;;;10.00;9.00;;;;;6.78;57.62;98328.00;6232933;28;96979;-62
2023/01/21 05:56:37;;;;;;;;;7.00;6.00;;;;;6.74;57.71;98323.25;6236294;28;96632;-65
2023/01/21 05:59:40;;;;;;;;;6.00;6.00;;;;;6.79;57.50;98324.25;6228570;27;96310;-64
2023/01/21 06:02:44;;;;;;;;;5.60;5.00;;;;;6.82;57.53;98323.03;6262605;27;96230;-64
2023/01/21 06:05:49;;;;;;;;;6.75;6.75;;;;;6.76;57.17;98324.69;6228224;27;96586;-61
2023/01/21 06:08:52;;;;;;;;;7.00;7.00;;;;;6.72;57.33;98331.50;6248752;27;96270;-62
2023/01/21 06:11:57;;;;;;;;;7.40;6.00;;;;;6.76;57.25;98337.25;6237967;28;96387;-62
2023/01/21 06:15:01;;;;;;;;;7.40;6.80;;;;;6.75;57.59;98340.97;6237004;28;97577;-62
2023/01/21 06:18:04;;;;;;;;;8.50;8.00;;;;;6.77;57.69;98341.59;6247731;27;96317;-62
2023/01/21 06:21:08;;;;;;;;;4.60;4.00;;;;;6.78;57.12;98346.75;6262563;27;96865;-63
2023/01/21 06:24:11;;;;;;;;;6.00;6.00;;;;;6.84;57.27;98345.88;6238626;27;95880;-62
2023/01/21 06:27:16;;;;;;;;;6.00;6.00;;;;;6.86;56.94;98345.66;6201695;28;96236;-62
2023/01/21 06:30:19;;;;;;;;;4.80;4.00;;;;;6.90;57.07;98353.06;6229796;27;96305;-62
2023/01/21 06:33:23;;;;;;;;;7.50;7.50;;;;;6.91;56.87;98354.72;6249665;27;96285;-63
2023/01/21 06:36:26;;;;;;;;;6.00;6.00;;;;;6.91;57.08;98362.75;6233939;27;97185;-62
2023/01/21 06:39:30;;;;;;;;;4.00;4.00;;;;;6.86;57.00;98354.53;6237530;28;96779;-63
2023/01/21 06:42:34;;;;;;;;;7.00;6.00;;;;;6.89;56.92;98362.13;6236110;28;96292;-63
2023/01/21 06:45:38;;;;;;;;;6.00;6.00;;;;;6.94;57.18;98361.50;6237336;27;96728;-62
2023/01/21 06:48:42;;;;;;;;;6.75;6.75;;;;;6.94;57.10;98359.66;6237882;27;96362;-62
2023/01/21 06:51:47;;;;;;;;;5.20;4.60;;;;;7.00;56.94;98383.97;6242142;27;96164;-63
2023/01/21 06:54:51;;;;;;;;;6.80;6.40;;;;;7.00;56.69;98374.06;6237588;28;96123;-63
2023/01/21 06:57:55;;;;;;;;;6.60;5.00;;;;;7.10;56.57;98379.81;6219030;28;96239;-64
2023/01/21 07:00:59;;;;;;;;;6.00;6.00;;;;;6.98;56.14;98354.72;6230129;27;96869;-63
2023/01/21 07:04:02;;;;;;;;;6.00;5.00;;;;;7.13;56.14;98389.31;6242987;27;97000;-63
2023/01/21 07:07:05;;;;;;;;;7.00;6.00;;;;;7.12;56.33;98382.28;6205083;28;96380;-63
2023/01/21 07:10:10;;;;;;;;;5.00;4.00;;;;;7.15;56.29;98389.88;6237061;28;96901;-62
2023/01/21 07:13:15;;;;;;;;;5.00;5.00;;;;;7.13;55.92;98400.03;6237013;28;96234;-63
2023/01/21 07:16:19;;;;;;;;;6.00;5.00;;;;;7.21;56.23;98400.59;6237385;28;96410;-63
2023/01/21 07:19:22;;;;;;;;;4.00;4.00;;;;;7.24;56.21;98397.47;6212345;28;96204;-63
2023/01/21 07:22:26;;;;;;;;;5.00;5.00;;;;;7.23;56.41;98403.09;6253666;27;96490;-63
2023/01/21 07:25:29;;;;;;;;;6.60;6.00;;;;;7.21;56.03;98402.47;6253351;27;96370;-63
2023/01/21 07:28:34;;;;;;;;;7.00;7.00;;;;;7.26;56.46;98410.69;6245435;27;96504;-63
2023/01/21 07:31:37;;;;;;;;;6.40;6.00;;;;;7.27;56.15;98412.34;6265825;27;96452;-63
2023/01/21 07:34:41;;;;;;;;;7.00;6.00;;;;;7.30;56.16;98418.09;6212212;28;96661;-64
2023/01/21 07:37:45;;;;;;;;;6.00;6.00;;;;;7.34;56.08;98415.81;6233448;28;96465;-63
2023/01/21 07:40:48;;;;;;;;;8.00;7.50;;;;;7.38;55.88;98422.38;6239940;28;96178;-62
2023/01/21 07:43:53;;;;;;;;;8.00;7.00;;;;;7.31;56.23;98421.59;6235679;28;97207;-63
2023/01/21 07:46:56;;;;;;;;;7.40;7.00;;;;;7.35;56.42;98426.31;6237498;28;96271;-65
2023/01/21 07:50:03;;;;;;;;;9.00;8.00;;;;;7.35;56.23;98428.19;6239716;28;96210;-63
2023/01/21 07:53:07;;;;;;;;;8.20;7.60;;;;;7.39;56.27;98424.88;6214856;28;96231;-64
2023/01/21 07:56:11;;;;;;;;;6.00;5.20;;;;;7.32;56.43;98424.06;6222847;28;96379;-63
2023/01/21 07:59:16;;;;;;;;;6.00;5.40;;;;;7.37;56.42;98426.13;6223016;28;96514;-63
2023/01/21 08:02:19;;;;;;;;;9.00;8.00;;;;;7.34;56.27;98432.72;6215925;28;96308;-63
2023/01/21 08:05:24;;;;;;;;;6.60;6.00;;;;;7.39;56.24;98440.94;6229255;27;96891;-63
2023/01/21 08:08:27;;;;;;;;;8.00;8.00;;;;;7.42;56.21;98447.75;6227767;28;98037;-63
2023/01/21 08:11:31;;;;;;;;;8.00;7.80;;;;;7.50;56.42;98444.84;6238057;27;97749;-62
2023/01/21 08:14:37;;;;;;;;;5.00;5.00;;;;;7.49;56.55;98448.53;6240264;28;96417;-63
2023/01/21 08:17:43;;;;;;;;;5.00;5.00;;;;;7.54;56.43;98453.28;6215358;28;96239;-63
2023/01/21 08:20:46;;;;;;;;;9.50;9.00;;;;;7.56;56.45;98448.53;6219394;28;96416;-63
2023/01/21 08:23:50;;;;;;;;;8.50;8.00;;;;;7.57;56.42;98447.50;6246759;27;96738;-63
2023/01/21 08:26:53;;;;;;;;;8.00;8.00;;;;;7.64;56.32;98453.63;6243460;27;96239;-64
2023/01/21 08:29:58;;;;;;;;;9.60;9.00;;;;;7.66;56.14;98446.22;6239870;27;98155;-63
2023/01/21 08:33:01;;;;;;;;;6.00;6.00;;;;;7.72;55.96;98450.72;6231209;28;96312;-63
2023/01/21 08:36:08;;;;;;;;;6.00;5.00;;;;;7.75;55.91;98451.13;6228690;28;96434;-62
2023/01/21 08:39:14;;;;;;;;;5.00;5.00;;;;;7.81;55.87;98452.94;6237049;27;96349;-64
2023/01/21 08:42:17;;;;;;;;;6.00;6.00;;;;;7.81;55.96;98455.63;6227108;28;96174;-62
2023/01/21 08:45:22;;;;;;;;;6.00;5.60;;;;;7.83;55.92;98474.19;6235116;28;96292;-63
2023/01/21 08:48:25;;;;;;;;;7.00;6.50;;;;;7.84;56.04;98471.31;6203797;28;96898;-62
2023/01/21 08:51:28;;;;;;;;;7.00;7.00;;;;;7.88;55.55;98476.22;6239079;28;96233;-64
2023/01/21 08:54:32;;;;;;;;;7.00;5.20;;;;;7.91;55.41;98475.81;6239703;27;96276;-63
2023/01/21 08:57:35;;;;;;;;;6.20;5.20;;;;;7.88;55.12;98478.91;6229657;27;96551;-65
2023/01/21 09:00:40;;;;;;;;;8.60;8.60;;;;;7.87;55.41;98485.34;6238519;27;96357;-65
2023/01/21 09:03:44;;;;;;;;;9.00;9.00;;;;;7.89;55.50;98494.81;6237598;27;96363;-64
2023/01/21 09:06:47;;;;;;;;;7.00;7.00;;;;;7.93;55.77;98503.25;6234596;27;96418;-64
2023/01/21 09:09:51;;;;;;;;;8.00;8.00;;;;;8.00;55.52;98502.19;6224641;28;96275;-64
2023/01/21 09:12:54;;;;;;;;;9.80;9.20;;;;;8.02;55.34;98499.28;6229916;27;97063;-63
2023/01/21 09:15:59;;;;;;;;;8.00;8.00;;;;;8.06;55.24;98497.84;6237439;27;96903;-63
2023/01/21 09:19:02;;;;;;;;;7.20;6.80;;;;;8.08;55.22;98506.47;6212009;28;98559;-63
2023/01/21 09:22:07;;;;;;;;;14.40;12.00;;;;;8.07;55.21;98512.88;6235694;27;96483;-63
2023/01/21 09:25:10;;;;;;;;;11.00;11.00;;;;;8.07;55.18;98502.13;6233918;28;96759;-64
2023/01/21 09:28:15;;;;;;;;;15.00;14.00;;;;;7.94;55.40;98504.91;6216110;28;96623;-66
2023/01/21 09:31:20;;;;;;;;;13.00;11.80;;;;;7.98;55.54;98514.16;6236960;27;96811;-64
2023/01/21 09:34:24;;;;;;;;;15.00;14.25;;;;;8.00;55.22;98518.31;6229467;27;96467;-64
2023/01/21 09:37:28;;;;;;;;;14.20;13.00;;;;;8.02;55.19;98516.22;6234211;27;97817;-64
2023/01/21 09:40:31;;;;;;;;;12.75;12.00;;;;;8.01;55.17;98516.44;6223443;28;96336;-64
2023/01/21 09:43:39;;;;;;;;;16.40;15.00;;;;;8.02;55.12;98515.38;6234198;28;96273;-64
2023/01/21 09:46:51;;;;;;;;;14.60;13.60;;;;;8.06;55.17;98516.63;6224992;28;96804;-63
2023/01/21 09:49:58;;;;;;;;;14.00;13.00;;;;;8.07;54.95;98516.38;6233067;28;97288;-63
2023/01/21 09:53:14;;;;;;;;;14.50;13.00;;;;;8.09;55.12;98525.06;6236100;28;96275;-63
2023/01/21 09:56:24;;;;;;;;;15.75;14.00;;;;;8.12;55.01;98534.53;6234476;28;96020;-63
2023/01/21 09:59:41;;;;;;;;;17.00;16.00;;;;;8.10;54.88;98533.94;6232948;28;96233;-63
2023/01/21 10:02:54;;;;;;;;;11.75;10.75;;;;;8.06;55.04;98538.91;6232379;28;96216;-64
2023/01/21 10:06:30;;;;;;;;;18.80;18.40;;;;;8.00;54.80;98534.41;6233494;27;96173;-63
2023/01/21 10:09:53;;;;;;;;;16.40;14.40;;;;;8.07;54.97;98537.88;6213023;28;96823;-66
2023/01/21 10:13:14;;;;;;;;;17.00;16.00;;;;;8.04;54.89;98537.47;6229674;28;96904;-65
2023/01/21 10:16:26;;;;;;;;;15.00;15.00;;;;;8.05;55.14;98531.06;6209028;28;96969;-64
2023/01/21 10:19:36;;;;;;;;;17.00;16.00;;;;;8.02;55.18;98535.00;6212913;28;96734;-64
2023/01/21 10:22:45;;;;;;;;;18.60;16.60;;;;;7.92;55.10;98540.00;6226094;27;97373;-64
2023/01/21 10:25:49;;;;;;;;;16.60;16.00;;;;;7.91;55.07;98540.22;6236091;28;96585;-64
2023/01/21 10:28:55;;;;;;;;;13.00;12.60;;;;;7.92;55.39;98533.81;6236333;28;98207;-63
2023/01/21 10:32:03;;;;;;;;;16.60;15.00;;;;;7.87;55.34;98530.97;6234378;28;96980;-64
2023/01/21 10:35:17;;;;;;;;;19.75;17.75;;;;;7.80;55.53;98528.28;6230795;28;96237;-63
2023/01/21 10:38:28;;;;;;;;;18.40;18.00;;;;;7.86;55.49;98537.34;6233396;28;96627;-64
2023/01/21 10:41:47;;;;;;;;;18.80;16.80;;;;;7.86;55.57;98540.03;6234902;27;96341;-64
2023/01/21 10:44:57;;;;;;;;;18.80;17.00;;;;;7.90;55.57;98528.66;6235115;27;96865;-63
2023/01/21 10:48:11;;;;;;;;;18.00;17.00;;;;;7.87;55.32;98526.38;6209827;28;96333;-64
2023/01/21 10:51:21;;;;;;;;;21.00;19.50;;;;;7.87;55.52;98528.28;6212150;28;96170;-63
2023/01/21 10:54:41;;;;;;;;;22.00;20.00;;;;;7.73;55.44;98532.84;6212085;28;96690;-64
2023/01/21 10:57:56;;;;;;;;;20.00;19.00;;;;;7.73;55.45;98546.25;6224259;27;96284;-63
2023/01/21 11:01:05;;;;;;;;;21.00;18.25;;;;;7.78;55.38;98541.09;6237642;27;96329;-64
2023/01/21 11:04:14;;;;;;;;;21.40;21.00;;;;;7.80;55.42;98531.81;6235833;28;96324;-63
2023/01/21 11:07:21;;;;;;;;;18.00;17.50;;;;;7.83;55.46;98539.41;6239125;28;96561;-64
2023/01/21 11:10:27;;;;;;;;;22.00;21.00;;;;;7.79;55.26;98530.16;6240314;28;96349;-64
2023/01/21 11:13:30;;;;;;;;;20.40;19.40;;;;;7.87;55.40;98531.75;6237753;28;97106;-62
2023/01/21 11:16:36;;;;;;;;;19.80;18.00;;;;;7.94;55.53;98547.84;6240044;28;97824;-62
2023/01/21 11:19:41;;;;;;;;;19.60;17.60;;;;;8.03;55.07;98546.56;6242215;28;96340;-63
2023/01/21 11:22:45;;;;;;;;;16.00;15.00;;;;;7.87;54.79;98533.66;6238445;27;96225;-65
2023/01/21 11:25:49;;;;;;;;;17.50;16.00;;;;;8.08;54.95;98544.06;6231967;28;96307;-64
2023/01/21 11:29:07;;;;;;;;;18.00;16.80;;;;;8.20;54.53;98545.06;6237577;28;96598;-63
2023/01/21 11:32:19;;;;;;;;;23.75;22.00;;;;;8.28;54.37;98536.72;6240210;28;96293;-64
2023/01/21 11:35:23;;;;;;;;;24.80;24.00;;;;;8.35;54.07;98548.31;6238352;28;96264;-63
2023/01/21 11:38:34;;;;;;;;;22.50;22.00;;;;;8.37;54.06;98540.84;6231531;28;96487;-63
2023/01/21 11:41:37;;;;;;;;;21.00;20.00;;;;;8.47;53.64;98543.88;6235674;28;97469;-63
2023/01/21 11:44:52;;;;;;;;;22.00;21.60;;;;;8.53;53.44;98539.50;6219725;28;97466;-63
2023/01/21 11:47:56;;;;;;;;;24.00;22.00;;;;;8.56;53.43;98545.25;6223004;28;96854;-63
2023/01/21 11:51:06;;;;;;;;;21.60;20.00;;;;;8.46;53.44;98539.53;6236112;28;96622;-63
2023/01/21 11:54:14;;;;;;;;;21.20;18.80;;;;;8.59;53.36;98544.84;6236526;28;96609;-62
2023/01/21 11:57:24;;;;;;;;;22.40;21.40;;;;;8.48;52.91;98548.22;6235634;28;96523;-64
2023/01/21 12:00:36;;;;;;;;;24.80;22.60;;;;;8.57;52.84;98549.59;6235553;28;96281;-65
2023/01/21 12:03:43;;;;;;;;;21.00;20.00;;;;;8.40;53.10;98559.22;6236393;28;96541;-63
2023/01/21 12:06:50;;;;;;;;;20.60;19.60;;;;;8.40;53.18;98559.22;6237507;28;96229;-63
2023/01/21 12:10:04;;;;;;;;;23.00;21.25;;;;;8.25;53.32;98545.22;6236850;28;96578;-64
2023/01/21 12:13:17;;;;;;;;;25.40;23.00;;;;;8.20;53.64;98537.00;6218118;28;96205;-63
2023/01/21 12:16:35;;;;;;;;;24.00;22.00;;;;;8.31;53.41;98563.19;6235429;28;96528;-64
2023/01/21 12:19:55;;;;;;;;;21.00;19.00;;;;;8.34;53.43;98557.41;6233338;28;96248;-65
2023/01/21 12:23:21;;;;;;;;;21.00;20.00;;;;;8.22;53.46;98562.56;6239151;28;96341;-63
2023/01/21 12:26:36;;;;;;;;;21.00;19.00;;;;;8.16;53.63;98566.13;6223241;28;96288;-64
2023/01/21 12:29:54;;;;;;;;;19.60;18.00;;;;;8.13;53.66;98573.78;6218847;28;96977;-63
2023/01/21 12:33:04;;;;;;;;;25.00;20.25;;;;;8.23;53.59;98574.16;6237609;28;96324;-63
2023/01/21 12:36:15;;;;;;;;;23.00;22.40;;;;;8.06;53.57;98581.06;6237265;28;96721;-63
2023/01/21 12:39:24;;;;;;;;;24.60;22.40;;;;;8.15;53.82;98580.59;6238989;28;96225;-63
2023/01/21 12:42:33;;;;;;;;;26.00;24.00;;;;;8.18;53.73;98582.84;6237828;28;97149;-63
2023/01/21 12:45:44;;;;;;;;;25.40;25.40;;;;;8.25;53.74;98598.94;6236104;28;96200;-64
2023/01/21 12:48:53;;;;;;;;;26.40;21.40;;;;;8.21;53.68;98603.06;6238448;28;96703;-63
2023/01/21 12:52:04;;;;;;;;;26.80;24.00;;;;;8.16;53.80;98606.38;6235715;28;96249;-64
2023/01/21 12:55:18;;;;;;;;;25.00;23.33;;;;;8.19;53.81;98614.03;6237843;28;96247;-63
2023/01/21 12:58:26;;;;;;;;;24.80;24.20;;;;;8.24;53.94;98611.53;6222561;28;96392;-64
2023/01/21 13:01:48;;;;;;;;;25.00;22.80;;;;;8.16;53.80;98629.75;6222393;28;96643;-63
2023/01/21 13:04:58;;;;;;;;;25.80;25.00;;;;;8.14;53.59;98632.66;6230751;28;96452;-63
2023/01/21 13:08:18;;;;;;;;;25.00;23.00;;;;;8.06;53.65;98637.44;6229908;28;97338;-63
2023/01/21 13:11:25;;;;;;;;;27.60;25.20;;;;;8.01;54.09;98651.50;6236235;28;96483;-64
2023/01/21 13:14:34;;;;;;;;;26.00;23.80;;;;;8.04;53.95;98653.75;6215367;28;96723;-65
2023/01/21 13:17:40;;;;;;;;;25.00;23.40;;;;;8.01;53.88;98659.53;6232221;28;96725;-64
2023/01/21 13:20:52;;;;;;;;;26.00;24.60;;;;;7.93;54.03;98658.94;6236027;28;96903;-63
2023/01/21 13:24:03;;;;;;;;;21.40;21.00;;;;;7.97;53.99;98660.16;6228350;27;96400;-64
2023/01/21 13:27:16;;;;;;;;;28.20;26.80;;;;;7.97;53.95;98663.66;6231737;28;96249;-63
2023/01/21 13:30:30;;;;;;;;;26.80;24.00;;;;;8.01;53.67;98672.97;6235516;28;96618;-63
2023/01/21 13:33:47;;;;;;;;;23.00;22.40;;;;;7.87;53.65;98659.78;6234515;27;96647;-63
2023/01/21 13:37:06;;;;;;;;;23.00;22.80;;;;;7.91;54.06;98674.44;6235303;27;97320;-64
2023/01/21 13:40:23;;;;;;;;;24.00;24.00;;;;;7.86;54.23;98680.44;6234011;27;96145;-63
2023/01/21 13:43:43;;;;;;;;;24.00;23.25;;;;;7.82;54.38;98680.00;6235609;28;96651;-64
2023/01/21 13:46:58;;;;;;;;;26.00;22.00;;;;;7.84;54.41;98669.06;6235127;28;96313;-62
2023/01/21 13:50:16;;;;;;;;;24.50;22.25;;;;;7.93;54.45;98691.13;6238236;27;96257;-64
2023/01/21 13:53:37;;;;;;;;;27.00;25.00;;;;;7.97;54.42;98682.44;6229893;28;96261;-66
2023/01/21 13:56:59;;;;;;;;;27.00;23.00;;;;;7.99;54.63;98682.25;6234959;27;96274;-65
2023/01/21 14:00:09;;;;;;;;;27.00;23.00;;;;;7.93;54.62;98691.97;6235568;28;96253;-65
2023/01/21 14:03:32;;;;;;;;;29.00;26.80;;;;;7.91;54.59;98694.06;6236524;27;96298;-63
2023/01/21 14:06:42;;;;;;;;;29.00;24.40;;;;;7.87;54.62;98690.09;6234179;28;97367;-63
2023/01/21 14:09:50;;;;;;;;;27.00;26.25;;;;;7.84;54.70;98698.59;6231829;28;96323;-64
2023/01/21 14:13:42;;;;;;;;;27.25;26.00;;;;;7.82;54.95;98709.53;6237096;28;96262;-63
2023/01/21 14:17:27;;;;;;;;;33.50;29.50;;;;;7.83;54.71;98713.88;6123987;28;96545;-64
2023/01/21 14:21:08;;;;;;;;;27.00;26.00;;;;;7.86;54.93;98719.88;6205694;27;96837;-63
2023/01/21 14:24:37;;;;;;;;;29.50;27.75;;;;;7.79;55.03;98720.69;6232378;27;97292;-64
2023/01/21 14:27:51;;;;;;;;;26.40;25.00;;;;;7.83;54.75;98729.13;6233639;28;96412;-65
2023/01/21 14:31:03;;;;;;;;;28.50;28.50;;;;;7.82;54.59;98732.84;6228744;27;96225;-64
2023/01/21 14:34:17;;;;;;;;;35.00;30.00;;;;;7.76;54.58;98739.91;6234863;28;96278;-66
2023/01/21 14:37:30;;;;;;;;;34.60;30.00;;;;;7.70;54.73;98742.56;6237427;27;96637;-65
2023/01/21 14:40:35;;;;;;;;;30.00;27.40;;;;;7.49;54.98;98732.88;6239885;28;97172;-63
2023/01/21 14:43:52;;;;;;;;;30.60;27.00;;;;;7.62;55.72;98761.56;6239117;27;97137;-65
2023/01/21 14:47:21;;;;;;;;;31.20;27.40;;;;;7.66;55.87;98769.00;6238255;28;96909;-64
2023/01/21 14:50:45;;;;;;;;;27.20;26.00;;;;;7.60;55.79;98769.81;6236603;27;96567;-65
2023/01/21 14:53:52;;;;;;;;;29.00;28.00;;;;;7.53;55.80;98778.88;6232790;27;97356;-65